createdAt,value
2019-02-16T00:01:01.941Z,16.46
2019-02-16T00:03:28.709Z,16.47
2019-02-16T00:05:55.373Z,16.43
2019-02-16T00:08:22.074Z,16.43
2019-02-16T00:10:48.726Z,16.42
2019-02-16T00:13:15.441Z,16.40
2019-02-16T00:15:42.104Z,16.43
2019-02-16T00:18:08.763Z,16.42
2019-02-16T00:20:35.486Z,16.35
2019-02-16T00:23:02.145Z,16.37
2019-02-16T00:25:28.811Z,16.35
2019-02-16T00:27:55.464Z,16.39
2019-02-16T00:30:22.146Z,16.33
2019-02-16T00:32:48.812Z,16.33
2019-02-16T00:35:15.516Z,16.33
2019-02-16T00:37:42.158Z,16.37
2019-02-16T00:40:08.841Z,16.33
2019-02-16T00:42:35.488Z,16.30
2019-02-16T00:45:02.293Z,16.33
2019-02-16T00:47:28.939Z,16.31
2019-02-16T00:49:55.584Z,16.29
2019-02-16T00:52:22.247Z,16.31
2019-02-16T00:54:48.922Z,16.35
2019-02-16T00:57:15.599Z,16.29
2019-02-16T00:59:42.304Z,16.26
2019-02-16T01:02:08.963Z,16.29
2019-02-16T01:04:35.607Z,16.27
2019-02-16T01:07:02.262Z,16.30
2019-02-16T01:09:28.922Z,16.30
2019-02-16T01:11:55.583Z,16.29
2019-02-16T01:14:22.246Z,16.26
2019-02-16T01:16:48.963Z,16.22
2019-02-16T01:19:15.633Z,16.25
2019-02-16T01:21:42.354Z,16.26
2019-02-16T01:24:09.052Z,16.22
2019-02-16T01:26:35.720Z,16.24
2019-02-16T01:29:02.384Z,16.25
2019-02-16T01:31:29.097Z,16.26
2019-02-16T01:33:55.815Z,16.19
2019-02-16T01:36:22.474Z,16.20
2019-02-16T01:38:49.218Z,16.23
2019-02-16T01:41:15.924Z,16.19
2019-02-16T01:43:42.641Z,16.16
2019-02-16T01:46:09.304Z,16.19
2019-02-16T01:48:35.969Z,16.19
2019-02-16T01:51:02.631Z,16.16
2019-02-16T01:53:29.274Z,16.15
2019-02-16T01:55:55.993Z,16.18
2019-02-16T01:58:22.644Z,16.15
2019-02-16T02:00:49.310Z,16.16
2019-02-16T02:03:15.962Z,16.12
2019-02-16T02:05:42.662Z,16.10
2019-02-16T02:08:09.308Z,16.13
2019-02-16T02:10:36.022Z,16.11
2019-02-16T02:13:02.688Z,16.11
2019-02-16T02:15:29.337Z,16.08
2019-02-16T02:17:55.991Z,16.09
2019-02-16T02:20:22.678Z,16.05
2019-02-16T02:22:49.374Z,16.08
2019-02-16T02:25:16.037Z,16.05
2019-02-16T02:27:42.752Z,16.06
2019-02-16T02:30:09.412Z,16.06
2019-02-16T02:32:36.071Z,16.02
2019-02-16T02:35:02.776Z,16.01
2019-02-16T02:37:29.431Z,16.02
2019-02-16T02:39:56.156Z,16.02
2019-02-16T02:42:22.799Z,16.04
2019-02-16T02:44:49.477Z,15.99
2019-02-16T02:47:16.138Z,15.98
2019-02-16T02:49:42.812Z,16.00
2019-02-16T02:52:09.469Z,15.99
2019-02-16T02:54:36.175Z,16.00
2019-02-16T02:57:02.884Z,16.00
2019-02-16T02:59:29.505Z,16.00
2019-02-16T03:01:56.166Z,16.00
2019-02-16T03:04:22.912Z,16.00
2019-02-16T03:06:49.523Z,15.96
2019-02-16T03:09:16.186Z,15.98
2019-02-16T03:11:42.865Z,16.02
2019-02-16T03:14:09.526Z,16.01
2019-02-16T03:16:36.244Z,15.98
2019-02-16T03:19:02.902Z,15.95
2019-02-16T03:21:29.552Z,15.96
2019-02-16T03:23:56.267Z,15.96
2019-02-16T03:26:23.000Z,15.95
2019-02-16T03:28:49.712Z,15.94
2019-02-16T03:31:16.439Z,15.90
2019-02-16T03:33:43.085Z,15.92
2019-02-16T03:36:09.723Z,15.92
2019-02-16T03:38:36.392Z,15.93
2019-02-16T03:41:03.098Z,15.96
2019-02-16T03:43:29.751Z,15.97
2019-02-16T03:45:56.408Z,15.96
2019-02-16T03:48:23.161Z,15.94
2019-02-16T03:50:49.813Z,15.96
2019-02-16T03:53:16.478Z,15.95
2019-02-16T03:55:43.153Z,15.96
2019-02-16T03:58:09.830Z,15.96
2019-02-16T04:00:36.460Z,15.99
2019-02-16T04:03:03.120Z,15.98
2019-02-16T04:05:29.787Z,16.02
2019-02-16T04:07:56.452Z,15.97
2019-02-16T04:10:23.169Z,15.97
2019-02-16T04:12:49.814Z,16.01
2019-02-16T04:15:16.512Z,15.95
2019-02-16T04:17:43.178Z,15.96
2019-02-16T04:20:09.824Z,15.97
2019-02-16T04:22:36.703Z,15.96
2019-02-16T04:25:03.359Z,15.98
2019-02-16T04:27:30.018Z,15.96
2019-02-16T04:29:56.689Z,15.97
2019-02-16T04:32:23.362Z,15.95
2019-02-16T04:34:50.061Z,15.94
2019-02-16T04:37:16.713Z,15.91
2019-02-16T04:39:43.393Z,15.95
2019-02-16T04:42:11.428Z,15.89
2019-02-16T04:44:38.021Z,15.94
2019-02-16T04:47:03.429Z,15.91
2019-02-16T04:49:30.079Z,15.91
2019-02-16T04:51:56.745Z,15.97
2019-02-16T04:54:23.394Z,15.90
2019-02-16T04:56:50.091Z,15.91
2019-02-16T04:59:16.815Z,15.91
2019-02-16T05:01:43.476Z,15.90
2019-02-16T05:04:10.124Z,15.94
2019-02-16T05:06:36.909Z,15.93
2019-02-16T05:09:03.562Z,15.94
2019-02-16T05:11:30.221Z,15.92
2019-02-16T05:13:56.908Z,15.86
2019-02-16T05:16:23.571Z,15.87
2019-02-16T05:18:50.239Z,15.88
2019-02-16T05:21:16.916Z,15.87
2019-02-16T05:23:43.627Z,15.84
2019-02-16T05:26:10.283Z,15.90
2019-02-16T05:28:36.964Z,15.88
2019-02-16T05:31:03.637Z,15.90
2019-02-16T05:33:30.367Z,15.78
2019-02-16T05:35:57.025Z,15.75
2019-02-16T05:38:23.678Z,15.71
2019-02-16T05:40:50.339Z,15.77
2019-02-16T05:43:17.039Z,15.59
2019-02-16T05:45:43.706Z,15.41
2019-02-16T05:48:10.385Z,15.27
2019-02-16T05:50:37.044Z,15.39
2019-02-16T05:53:03.717Z,15.55
2019-02-16T05:55:30.420Z,15.74
2019-02-16T05:57:57.120Z,15.47
2019-02-16T06:00:23.776Z,14.79
2019-02-16T06:02:50.440Z,14.54
2019-02-16T06:05:17.153Z,14.65
2019-02-16T06:07:43.873Z,15.06
2019-02-16T06:10:10.515Z,14.55
2019-02-16T06:12:37.188Z,14.07
2019-02-16T06:15:03.840Z,14.11
2019-02-16T06:17:30.573Z,14.81
2019-02-16T06:19:57.241Z,14.88
2019-02-16T06:22:23.943Z,14.86
2019-02-16T06:24:50.597Z,14.85
2019-02-16T06:27:17.250Z,14.89
2019-02-16T06:29:43.999Z,14.98
2019-02-16T06:32:10.656Z,14.79
2019-02-16T06:34:37.332Z,14.79
2019-02-16T06:37:04.079Z,14.85
2019-02-16T06:39:30.752Z,14.75
2019-02-16T06:41:57.410Z,14.72
2019-02-16T06:44:24.157Z,14.69
2019-02-16T06:46:50.787Z,14.67
2019-02-16T06:49:17.643Z,14.70
2019-02-16T06:51:44.330Z,14.70
2019-02-16T06:54:11.029Z,14.65
2019-02-16T06:56:37.704Z,14.46
2019-02-16T06:59:04.381Z,14.58
2019-02-16T07:01:33.095Z,14.32
2019-02-16T07:03:57.759Z,14.41
2019-02-16T07:06:24.404Z,14.33
2019-02-16T07:08:51.050Z,14.43
2019-02-16T07:11:17.718Z,14.38
2019-02-16T07:13:44.361Z,14.45
2019-02-16T07:16:11.062Z,14.42
2019-02-16T07:18:39.559Z,14.49
2019-02-16T07:21:04.415Z,14.44
2019-02-16T07:23:31.080Z,14.48
2019-02-16T07:25:57.745Z,14.58
2019-02-16T07:28:24.408Z,14.54
2019-02-16T07:30:51.062Z,14.54
2019-02-16T07:33:17.730Z,14.60
2019-02-16T07:35:44.407Z,14.71
2019-02-16T07:38:11.112Z,14.63
2019-02-16T07:40:37.779Z,14.67
2019-02-16T07:43:04.487Z,14.64
2019-02-16T07:45:31.135Z,14.73
2019-02-16T07:47:57.898Z,14.86
2019-02-16T07:50:24.673Z,14.79
2019-02-16T07:52:51.340Z,14.89
2019-02-16T07:55:18.087Z,14.61
2019-02-16T07:57:44.752Z,14.77
2019-02-16T08:00:11.395Z,14.84
2019-02-16T08:02:38.125Z,14.92
2019-02-16T08:05:04.775Z,14.98
2019-02-16T08:07:31.440Z,14.92
2019-02-16T08:09:58.099Z,14.83
2019-02-16T08:12:24.797Z,14.88
2019-02-16T08:14:51.451Z,15.01
2019-02-16T08:17:18.158Z,14.84
2019-02-16T08:19:44.823Z,14.99
2019-02-16T08:22:11.490Z,15.03
2019-02-16T08:24:38.751Z,14.97
2019-02-16T08:27:04.944Z,14.90
2019-02-16T08:29:31.607Z,14.93
2019-02-16T08:31:58.298Z,14.92
2019-02-16T08:34:24.996Z,14.83
2019-02-16T08:36:51.676Z,14.61
2019-02-16T08:39:21.231Z,14.60
2019-02-16T08:41:49.431Z,14.59
2019-02-16T08:44:14.581Z,14.59
2019-02-16T08:46:41.247Z,14.53
2019-02-16T08:49:09.271Z,14.50
2019-02-16T08:51:34.607Z,14.46
2019-02-16T08:54:01.314Z,14.58
2019-02-16T08:56:27.978Z,14.38
2019-02-16T08:58:54.649Z,14.46
2019-02-16T09:01:21.301Z,14.35
2019-02-16T09:03:47.968Z,14.33
2019-02-16T09:06:14.624Z,14.33
2019-02-16T09:08:41.276Z,14.48
2019-02-16T09:11:07.978Z,14.32
2019-02-16T09:13:34.699Z,14.37
2019-02-16T09:16:01.357Z,14.41
2019-02-16T09:18:28.028Z,14.28
2019-02-16T09:20:54.683Z,14.38
2019-02-16T09:23:21.401Z,14.33
2019-02-16T09:25:48.058Z,14.32
2019-02-16T09:28:14.725Z,14.36
2019-02-16T09:30:41.392Z,14.39
2019-02-16T09:33:08.039Z,14.33
2019-02-16T09:35:34.753Z,14.31
2019-02-16T09:38:01.410Z,14.30
2019-02-16T09:40:28.072Z,14.30
2019-02-16T09:42:54.820Z,14.15
2019-02-16T09:45:21.515Z,14.21
2019-02-16T09:47:48.167Z,14.21
2019-02-16T09:50:14.863Z,14.20
2019-02-16T09:52:41.531Z,14.21
2019-02-16T09:55:08.195Z,14.18
2019-02-16T09:57:34.919Z,14.19
2019-02-16T10:00:01.576Z,14.13
2019-02-16T10:02:28.289Z,14.12
2019-02-16T10:04:54.925Z,14.14
2019-02-16T10:07:21.659Z,14.08
2019-02-16T10:09:48.366Z,14.07
2019-02-16T10:12:15.101Z,14.12
2019-02-16T10:14:41.719Z,14.07
2019-02-16T10:17:09.945Z,14.10
2019-02-16T10:19:35.136Z,14.04
2019-02-16T10:22:01.794Z,14.10
2019-02-16T10:24:28.538Z,14.06
2019-02-16T10:26:55.198Z,14.09
2019-02-16T10:29:21.868Z,14.16
2019-02-16T10:31:48.531Z,14.11
2019-02-16T10:34:15.243Z,14.06
2019-02-16T10:36:41.887Z,14.05
2019-02-16T10:39:08.560Z,14.12
2019-02-16T10:41:35.277Z,14.09
2019-02-16T10:44:01.951Z,13.98
2019-02-16T10:46:28.662Z,14.09
2019-02-16T10:48:55.326Z,14.03
2019-02-16T10:51:21.995Z,14.05
2019-02-16T10:53:48.731Z,14.03
2019-02-16T10:56:15.387Z,14.04
2019-02-16T10:58:42.119Z,14.01
2019-02-16T11:01:08.764Z,14.00
2019-02-16T11:03:35.434Z,13.98
2019-02-16T11:06:02.071Z,13.99
2019-02-16T11:08:28.829Z,14.01
2019-02-16T11:10:55.499Z,14.00
2019-02-16T11:13:22.155Z,13.95
2019-02-16T11:15:48.837Z,14.01
2019-02-16T11:18:15.548Z,13.97
2019-02-16T11:20:42.193Z,14.01
2019-02-16T11:23:08.868Z,13.95
2019-02-16T11:25:35.538Z,13.99
2019-02-16T11:28:02.243Z,13.96
2019-02-16T11:30:28.937Z,13.98
2019-02-16T11:32:55.655Z,13.94
2019-02-16T11:35:22.400Z,13.98
2019-02-16T11:37:49.067Z,13.93
2019-02-16T11:40:15.875Z,13.93
2019-02-16T11:42:42.560Z,13.90
2019-02-16T11:45:09.318Z,14.00
2019-02-16T11:47:35.983Z,13.91
2019-02-16T11:50:02.641Z,13.98
2019-02-16T11:52:29.365Z,13.94
2019-02-16T11:54:56.024Z,13.95
2019-02-16T11:57:22.733Z,13.93
2019-02-16T11:59:49.403Z,13.94
2019-02-16T12:02:16.141Z,13.93
2019-02-16T12:04:42.827Z,13.95
2019-02-16T12:07:09.531Z,13.89
2019-02-16T12:09:36.306Z,13.87
2019-02-16T12:12:02.845Z,13.81
2019-02-16T12:14:29.508Z,13.95
2019-02-16T12:16:56.224Z,13.89
2019-02-16T12:19:22.881Z,13.93
2019-02-16T12:21:49.555Z,13.88
2019-02-16T12:24:16.237Z,13.91
2019-02-16T12:26:42.892Z,13.92
2019-02-16T12:29:09.571Z,13.95
2019-02-16T12:31:36.258Z,13.93
2019-02-16T12:34:02.922Z,13.80
2019-02-16T12:36:29.602Z,13.88
2019-02-16T12:39:04.634Z,13.84
2019-02-16T12:41:23.000Z,13.86
2019-02-16T12:43:49.661Z,13.86
2019-02-16T12:46:16.383Z,13.89
2019-02-16T12:48:43.033Z,13.89
2019-02-16T12:51:09.694Z,13.91
2019-02-16T12:53:36.450Z,13.83
2019-02-16T12:56:03.118Z,13.89
2019-02-16T12:58:29.776Z,13.79
2019-02-16T13:00:56.493Z,13.87
2019-02-16T13:03:23.152Z,13.83
2019-02-16T13:05:49.803Z,13.87
2019-02-16T13:08:16.456Z,13.79
2019-02-16T13:10:43.176Z,13.89
2019-02-16T13:13:09.946Z,13.79
2019-02-16T13:15:36.626Z,13.86
2019-02-16T13:18:03.341Z,13.78
2019-02-16T13:20:30.001Z,13.86
2019-02-16T13:22:56.664Z,13.82
2019-02-16T13:25:24.665Z,13.86
2019-02-16T13:27:49.999Z,13.83
2019-02-16T13:30:16.652Z,13.85
2019-02-16T13:32:43.319Z,13.82
2019-02-16T13:35:10.046Z,13.90
2019-02-16T13:37:36.740Z,13.82
2019-02-16T13:40:03.455Z,13.87
2019-02-16T13:42:30.108Z,13.83
2019-02-16T13:44:56.760Z,13.83
2019-02-16T13:47:23.472Z,13.84
2019-02-16T13:49:50.151Z,13.76
2019-02-16T13:52:16.858Z,13.57
2019-02-16T13:54:43.520Z,13.91
2019-02-16T13:57:10.256Z,14.01
2019-02-16T13:59:36.920Z,13.96
2019-02-16T14:02:03.738Z,13.91
2019-02-16T14:04:30.386Z,13.90
2019-02-16T14:06:57.048Z,13.92
2019-02-16T14:09:23.720Z,13.86
2019-02-16T14:11:50.443Z,13.86
2019-02-16T14:14:17.141Z,13.97
2019-02-16T14:16:43.825Z,13.87
2019-02-16T14:19:10.484Z,13.91
2019-02-16T14:21:37.191Z,13.89
2019-02-16T14:24:03.853Z,13.92
2019-02-16T14:26:30.532Z,13.94
2019-02-16T14:28:57.194Z,13.95
2019-02-16T14:31:28.476Z,13.93
2019-02-16T14:33:50.521Z,13.95
2019-02-16T14:36:17.223Z,13.94
2019-02-16T14:38:43.884Z,14.01
2019-02-16T14:41:10.541Z,13.97
2019-02-16T14:43:37.217Z,13.97
2019-02-16T14:46:03.872Z,13.97
2019-02-16T14:48:30.574Z,13.98
2019-02-16T14:50:57.226Z,13.96
2019-02-16T14:53:23.906Z,13.99
2019-02-16T14:55:54.173Z,13.97
2019-02-16T14:58:17.324Z,13.98
2019-02-16T15:00:43.980Z,14.00
2019-02-16T15:03:10.634Z,13.99
2019-02-16T15:05:37.380Z,14.00
2019-02-16T15:08:04.043Z,13.99
2019-02-16T15:10:30.720Z,14.03
2019-02-16T15:12:57.390Z,13.98
2019-02-16T15:15:24.068Z,13.99
2019-02-16T15:17:50.792Z,13.98
2019-02-16T15:20:17.462Z,13.98
2019-02-16T15:22:44.175Z,14.00
2019-02-16T15:25:10.936Z,13.96
2019-02-16T15:27:37.517Z,14.01
2019-02-16T15:30:04.239Z,14.00
2019-02-16T15:32:30.928Z,14.05
2019-02-16T15:34:57.593Z,14.02
2019-02-16T15:37:24.302Z,14.06
2019-02-16T15:39:50.934Z,14.03
2019-02-16T15:42:17.611Z,14.09
2019-02-16T15:44:44.333Z,14.10
2019-02-16T15:47:11.000Z,14.12
2019-02-16T15:49:37.684Z,14.11
2019-02-16T15:52:04.359Z,14.16
2019-02-16T15:54:31.099Z,14.13
2019-02-16T15:56:57.769Z,14.20
2019-02-16T15:59:24.470Z,14.19
2019-02-16T16:01:51.182Z,14.20
2019-02-16T16:04:17.955Z,14.24
2019-02-16T16:06:44.614Z,14.24
2019-02-16T16:09:11.264Z,14.29
2019-02-16T16:11:37.986Z,14.30
2019-02-16T16:14:06.516Z,14.31
2019-02-16T16:16:31.483Z,14.34
2019-02-16T16:18:58.097Z,14.39
2019-02-16T16:21:24.774Z,14.40
2019-02-16T16:23:51.480Z,14.44
2019-02-16T16:26:19.601Z,14.47
2019-02-16T16:28:44.884Z,14.52
2019-02-16T16:31:11.681Z,14.54
2019-02-16T16:33:38.189Z,14.55
2019-02-16T16:36:04.915Z,14.56
2019-02-16T16:38:31.563Z,14.56
2019-02-16T16:40:58.218Z,14.57
2019-02-16T16:43:24.883Z,14.57
2019-02-16T16:45:51.527Z,14.59
2019-02-16T16:48:18.204Z,14.58
2019-02-16T16:50:44.854Z,14.60
2019-02-16T16:53:11.584Z,14.60
2019-02-16T16:55:38.354Z,14.66
2019-02-16T16:58:05.001Z,14.64
2019-02-16T17:00:31.664Z,14.70
2019-02-16T17:02:58.328Z,14.68
2019-02-16T17:05:25.143Z,14.73
2019-02-16T17:07:51.851Z,14.72
2019-02-16T17:10:18.518Z,14.71
2019-02-16T17:12:45.162Z,14.71
2019-02-16T17:15:11.827Z,14.73
2019-02-16T17:17:38.547Z,14.74
2019-02-16T17:20:05.285Z,14.75
2019-02-16T17:22:31.928Z,14.78
2019-02-16T17:24:58.582Z,14.79
2019-02-16T17:27:25.249Z,14.74
2019-02-16T17:29:51.960Z,14.79
2019-02-16T17:32:18.614Z,14.78
2019-02-16T17:34:45.278Z,14.80
2019-02-16T17:37:11.974Z,14.85
2019-02-16T17:39:38.622Z,14.82
2019-02-16T17:42:05.282Z,14.81
2019-02-16T17:44:31.932Z,14.83
2019-02-16T17:46:58.612Z,14.88
2019-02-16T17:49:25.264Z,14.89
2019-02-16T17:51:53.291Z,14.91
2019-02-16T17:54:18.580Z,14.87
2019-02-16T17:56:46.995Z,14.92
2019-02-16T17:59:11.901Z,14.90
2019-02-16T18:01:38.574Z,14.95
2019-02-16T18:04:05.271Z,14.94
2019-02-16T18:06:31.916Z,14.99
2019-02-16T18:08:58.577Z,14.99
2019-02-16T18:11:25.254Z,15.03
2019-02-16T18:13:51.955Z,15.03
2019-02-16T18:16:18.734Z,15.04
2019-02-16T18:18:45.400Z,15.11
2019-02-16T18:21:12.040Z,15.06
2019-02-16T18:23:38.842Z,15.11
2019-02-16T18:26:05.552Z,15.12
2019-02-16T18:28:32.222Z,15.11
2019-02-16T18:30:58.884Z,15.09
2019-02-16T18:33:25.595Z,15.10
2019-02-16T18:35:52.317Z,15.14
2019-02-16T18:38:19.078Z,15.13
2019-02-16T18:40:45.694Z,15.19
2019-02-16T18:43:13.747Z,15.17
2019-02-16T18:45:39.053Z,15.18
2019-02-16T18:48:05.779Z,15.19
2019-02-16T18:50:32.446Z,15.25
2019-02-16T18:52:59.167Z,15.27
2019-02-16T18:55:25.823Z,15.25
2019-02-16T18:57:52.484Z,15.27
2019-02-16T19:00:19.191Z,15.26
2019-02-16T19:02:45.840Z,15.27
2019-02-16T19:05:12.479Z,15.31
2019-02-16T19:07:39.238Z,15.27
2019-02-16T19:10:05.977Z,15.33
2019-02-16T19:12:32.630Z,15.33
2019-02-16T19:14:59.342Z,15.33
2019-02-16T19:17:26.004Z,15.35
2019-02-16T19:19:52.701Z,15.33
2019-02-16T19:22:19.413Z,15.31
2019-02-16T19:24:46.073Z,15.36
2019-02-16T19:27:16.693Z,15.34
2019-02-16T19:29:39.385Z,15.40
2019-02-16T19:32:06.041Z,15.36
2019-02-16T19:34:32.748Z,15.41
2019-02-16T19:36:59.396Z,15.40
2019-02-16T19:39:26.059Z,15.42
2019-02-16T19:41:52.761Z,15.51
2019-02-16T19:44:19.465Z,15.40
2019-02-16T19:46:48.801Z,15.40
2019-02-16T19:49:15.517Z,15.40
2019-02-16T19:51:42.179Z,15.43
2019-02-16T19:54:08.844Z,15.46
2019-02-16T19:56:35.519Z,15.46
2019-02-16T19:59:02.315Z,15.48
2019-02-16T20:01:28.972Z,15.44
2019-02-16T20:03:55.651Z,15.42
2019-02-16T20:06:22.359Z,15.45
2019-02-16T20:08:49.027Z,15.40
2019-02-16T20:11:15.688Z,15.46
2019-02-16T20:13:43.941Z,15.41
2019-02-16T20:16:09.053Z,15.50
2019-02-16T20:18:35.704Z,15.50
2019-02-16T20:21:02.397Z,15.47
2019-02-16T20:23:29.070Z,15.43
2019-02-16T20:25:55.721Z,15.50
2019-02-16T20:28:22.450Z,15.49
2019-02-16T20:30:49.124Z,15.48
2019-02-16T20:33:15.845Z,15.43
2019-02-16T20:35:42.495Z,15.54
2019-02-16T20:38:09.166Z,15.50
2019-02-16T20:40:35.874Z,15.52
2019-02-16T20:43:02.587Z,15.48
2019-02-16T20:45:29.252Z,15.54
2019-02-16T20:47:55.903Z,15.52
2019-02-16T20:50:22.674Z,15.53
2019-02-16T20:52:49.254Z,15.53
2019-02-16T20:55:15.974Z,15.52
2019-02-16T20:57:47.702Z,15.51
2019-02-16T21:00:09.322Z,15.54
2019-02-16T21:02:36.013Z,15.48
2019-02-16T21:05:02.735Z,15.55
2019-02-16T21:07:29.431Z,15.57
2019-02-16T21:09:56.168Z,15.51
2019-02-16T21:12:22.854Z,15.52
2019-02-16T21:14:49.557Z,15.55
2019-02-16T21:17:16.249Z,15.55
2019-02-16T21:19:42.989Z,15.55
2019-02-16T21:22:09.655Z,15.57
2019-02-16T21:24:36.348Z,15.59
2019-02-16T21:27:02.994Z,15.54
2019-02-16T21:29:29.712Z,15.55
2019-02-16T21:31:56.487Z,15.49
2019-02-16T21:34:23.090Z,15.53
2019-02-16T21:36:49.740Z,15.45
2019-02-16T21:39:16.486Z,15.53
2019-02-16T21:41:43.203Z,15.51
2019-02-16T21:44:13.801Z,15.51
2019-02-16T21:46:39.079Z,15.53
2019-02-16T21:49:05.800Z,15.47
2019-02-16T21:51:32.490Z,15.51
2019-02-16T21:53:59.138Z,15.48
2019-02-16T21:56:25.790Z,15.64
2019-02-16T21:58:52.467Z,15.80
2019-02-16T22:01:19.273Z,15.80
2019-02-16T22:03:45.915Z,15.86
2019-02-16T22:06:12.579Z,15.79
2019-02-16T22:08:39.234Z,15.68
2019-02-16T22:11:05.893Z,15.65
2019-02-16T22:13:32.597Z,15.54
2019-02-16T22:15:59.261Z,15.52
2019-02-16T22:18:25.914Z,15.49
2019-02-16T22:20:52.630Z,15.52
2019-02-16T22:23:19.246Z,15.54
2019-02-16T22:25:45.921Z,15.42
2019-02-16T22:28:18.597Z,15.47
2019-02-16T22:30:39.297Z,15.47
2019-02-16T22:33:05.973Z,15.42
2019-02-16T22:35:32.618Z,15.43
2019-02-16T22:37:59.329Z,15.43
2019-02-16T22:40:25.990Z,15.37
2019-02-16T22:42:52.706Z,15.42
2019-02-16T22:45:19.367Z,15.38
2019-02-16T22:47:46.074Z,15.35
2019-02-16T22:50:12.805Z,15.41
2019-02-16T22:52:39.454Z,15.33
2019-02-16T22:55:06.115Z,15.34
2019-02-16T22:57:32.794Z,15.35
2019-02-16T22:59:59.453Z,15.34
2019-02-16T23:02:26.135Z,15.34
2019-02-16T23:04:52.935Z,15.37
2019-02-16T23:07:19.585Z,15.32
2019-02-16T23:09:46.287Z,15.32
2019-02-16T23:12:12.942Z,15.32
2019-02-16T23:14:39.644Z,15.31
2019-02-16T23:17:06.298Z,15.29
2019-02-16T23:19:32.952Z,15.31
2019-02-16T23:21:59.603Z,15.24
2019-02-16T23:24:26.340Z,15.28
2019-02-16T23:26:52.982Z,15.28
2019-02-16T23:29:19.636Z,15.28
2019-02-16T23:31:46.291Z,15.27
2019-02-16T23:34:12.940Z,15.25
2019-02-16T23:36:39.581Z,15.25
2019-02-16T23:39:06.249Z,15.28
2019-02-16T23:41:32.924Z,15.24
2019-02-16T23:43:59.612Z,15.28
2019-02-16T23:46:26.258Z,15.27
2019-02-16T23:48:52.913Z,15.20
2019-02-16T23:51:19.592Z,15.21
2019-02-16T23:53:46.254Z,15.22
2019-02-16T23:56:15.898Z,15.23
2019-02-16T23:58:48.959Z,15.19
